Time;durP1;ratioP1;P1;durP2;ratioP2;P2;SDS_P1;SDS_P2;PMS_P1;PMS_P2;Temp;Humidity;BMP_temperature;BMP_pressure;BME280_temperature;BME280_humidity;BME280_pressure;Samples;Min_cycle;Max_cycle;Signal;HPM_P1;HPM_P2
2021/08/01 00:00:57;;;;;;;3.30;2.30;;;;;;;;;;5073629;28;20090;-60
2021/08/01 00:03:22;;;;;;;3.05;1.83;;;;;;;;;;5073495;28;20052;-60
2021/08/01 00:05:47;;;;;;;5.53;2.47;;;;;;;;;;5073513;28;20383;-60
2021/08/01 00:08:12;;;;;;;4.25;2.03;;;;;;;;;;5073228;28;20036;-60
2021/08/01 00:10:38;;;;;;;5.03;2.25;;;;;;;;;;5073658;28;20040;-60
2021/08/01 00:13:03;;;;;;;3.13;2.20;;;;;;;;;;5073836;28;20498;-60
2021/08/01 00:15:28;;;;;;;3.63;2.55;;;;;;;;;;5073512;28;20028;-60
2021/08/01 00:17:53;;;;;;;4.45;2.65;;;;;;;;;;5073301;28;20043;-60
2021/08/01 00:20:19;;;;;;;3.30;3.00;;;;;;;;;;5073054;28;20020;-60
2021/08/01 00:22:44;;;;;;;4.80;2.83;;;;;;;;;;5072618;28;20159;-61
2021/08/01 00:25:10;;;;;;;5.18;3.10;;;;;;;;;;5053260;28;20021;-60
2021/08/01 00:27:35;;;;;;;4.18;3.30;;;;;;;;;;5053577;28;20352;-60
2021/08/01 00:30:04;;;;;;;3.53;3.03;;;;;;;;;;5053537;28;20419;-60
2021/08/01 00:32:29;;;;;;;3.80;2.60;;;;;;;;;;5066990;28;20029;-60
2021/08/01 00:34:55;;;;;;;4.95;3.03;;;;;;;;;;5073220;28;20020;-60
2021/08/01 00:37:20;;;;;;;4.03;2.78;;;;;;;;;;5055256;28;20020;-60
2021/08/01 00:39:45;;;;;;;3.50;2.72;;;;;;;;;;5072386;28;20020;-60
2021/08/01 00:42:10;;;;;;;5.95;3.03;;;;;;;;;;5054656;28;20347;-60
2021/08/01 00:44:35;;;;;;;3.55;2.58;;;;;;;;;;5054782;28;20032;-60
2021/08/01 00:47:01;;;;;;;4.15;2.75;;;;;;;;;;5072904;28;20044;-60
2021/08/01 00:49:26;;;;;;;5.03;3.35;;;;;;;;;;5073092;28;20052;-60
2021/08/01 00:51:51;;;;;;;3.42;2.80;;;;;;;;;;5072346;28;20043;-60
2021/08/01 00:54:17;;;;;;;3.35;2.88;;;;;;;;;;5072663;28;20024;-60
2021/08/01 00:56:42;;;;;;;3.00;2.70;;;;;;;;;;5072715;28;20020;-61
2021/08/01 00:59:07;;;;;;;3.42;2.60;;;;;;;;;;5072752;28;20021;-61
2021/08/01 01:01:39;;;;;;;3.22;2.70;;;;;;;;;;5072206;28;20032;-60
2021/08/01 01:04:14;;;;;;;5.63;3.10;;;;;;;;;;5072307;28;20031;-60
2021/08/01 01:06:45;;;;;;;2.78;2.58;;;;;;;;;;5072166;28;20392;-61
2021/08/01 01:09:21;;;;;;;5.05;2.78;;;;;;;;;;5072232;28;20027;-60
2021/08/01 01:11:49;;;;;;;3.13;2.47;;;;;;;;;;5068033;28;20017;-60
2021/08/01 01:14:16;;;;;;;4.35;2.47;;;;;;;;;;5052496;28;20390;-60
2021/08/01 01:16:44;;;;;;;4.28;2.33;;;;;;;;;;5056225;28;20020;-60
2021/08/01 01:19:13;;;;;;;5.80;2.45;;;;;;;;;;5072433;28;20488;-61
2021/08/01 01:21:53;;;;;;;3.30;2.72;;;;;;;;;;5064619;28;20379;-60
2021/08/01 01:24:22;;;;;;;2.85;2.55;;;;;;;;;;5071815;28;20016;-60
2021/08/01 01:27:02;;;;;;;4.57;2.85;;;;;;;;;;5072242;28;20012;-60
2021/08/01 01:29:46;;;;;;;4.55;2.80;;;;;;;;;;5054219;28;20020;-60
2021/08/01 01:32:17;;;;;;;2.47;2.28;;;;;;;;;;5071887;28;20032;-60
2021/08/01 01:34:52;;;;;;;5.20;3.13;;;;;;;;;;5071949;28;20074;-60
2021/08/01 01:37:19;;;;;;;3.55;2.60;;;;;;;;;;5052043;28;20108;-63
2021/08/01 01:39:45;;;;;;;5.18;2.63;;;;;;;;;;5051998;28;20048;-60
2021/08/01 01:42:12;;;;;;;3.65;3.20;;;;;;;;;;5058729;28;20021;-60
2021/08/01 01:44:37;;;;;;;4.15;3.00;;;;;;;;;;5071888;28;20044;-60
2021/08/01 01:47:03;;;;;;;5.53;2.90;;;;;;;;;;5072044;28;20055;-60
2021/08/01 01:49:28;;;;;;;3.55;2.83;;;;;;;;;;5072354;28;20531;-60
2021/08/01 01:51:54;;;;;;;6.47;3.35;;;;;;;;;;5071470;28;20017;-60
2021/08/01 01:54:20;;;;;;;3.65;3.25;;;;;;;;;;5071846;28;20021;-60
2021/08/01 01:56:45;;;;;;;3.15;2.85;;;;;;;;;;5072216;28;20150;-60
2021/08/01 01:59:11;;;;;;;5.28;3.65;;;;;;;;;;5071897;28;20035;-60
2021/08/01 02:01:37;;;;;;;6.13;3.13;;;;;;;;;;5071629;28;20021;-60
2021/08/01 02:04:03;;;;;;;4.15;2.70;;;;;;;;;;5071541;28;20020;-60
2021/08/01 02:06:28;;;;;;;4.20;2.97;;;;;;;;;;5071311;28;20043;-60
2021/08/01 02:08:57;;;;;;;4.32;3.00;;;;;;;;;;5053698;28;20012;-60
2021/08/01 02:11:23;;;;;;;4.30;3.20;;;;;;;;;;5071634;28;20471;-60
2021/08/01 02:13:52;;;;;;;3.70;3.13;;;;;;;;;;5071960;28;20020;-60
2021/08/01 02:16:19;;;;;;;4.57;2.90;;;;;;;;;;5071697;28;20020;-60
2021/08/01 02:18:49;;;;;;;2.83;2.55;;;;;;;;;;5071687;28;20031;-60
2021/08/01 02:21:16;;;;;;;4.07;2.80;;;;;;;;;;5053456;28;20031;-60
2021/08/01 02:23:42;;;;;;;4.25;2.90;;;;;;;;;;5069802;28;20067;-60
2021/08/01 02:26:09;;;;;;;3.95;2.65;;;;;;;;;;5071556;28;20017;-60
2021/08/01 02:28:35;;;;;;;4.10;2.80;;;;;;;;;;5071660;28;20016;-60
2021/08/01 02:31:00;;;;;;;6.15;3.15;;;;;;;;;;5071642;28;20027;-60
2021/08/01 02:33:29;;;;;;;3.92;2.67;;;;;;;;;;5071137;28;20020;-60
2021/08/01 02:35:55;;;;;;;4.32;3.00;;;;;;;;;;5071312;28;20056;-60
2021/08/01 02:38:21;;;;;;;4.00;2.78;;;;;;;;;;5071362;28;20032;-60
2021/08/01 02:40:46;;;;;;;5.70;2.83;;;;;;;;;;5071427;28;20024;-60
2021/08/01 02:43:13;;;;;;;4.30;3.33;;;;;;;;;;5059111;28;20028;-60
2021/08/01 02:45:40;;;;;;;4.15;2.72;;;;;;;;;;5071550;28;20458;-60
2021/08/01 02:48:05;;;;;;;4.38;2.83;;;;;;;;;;5071473;28;20017;-60
2021/08/01 02:50:32;;;;;;;3.35;2.22;;;;;;;;;;5070719;28;20065;-60
2021/08/01 02:52:59;;;;;;;4.45;2.67;;;;;;;;;;5071101;28;20024;-60
2021/08/01 02:55:26;;;;;;;3.50;2.50;;;;;;;;;;5072432;28;20032;-61
2021/08/01 02:57:52;;;;;;;3.72;2.75;;;;;;;;;;5075077;28;20094;-60
2021/08/01 03:00:18;;;;;;;3.22;2.50;;;;;;;;;;5074720;28;20051;-60
2021/08/01 03:02:45;;;;;;;2.53;2.33;;;;;;;;;;5074821;28;20024;-60
2021/08/01 03:05:10;;;;;;;3.50;2.60;;;;;;;;;;5074363;28;20028;-59
2021/08/01 03:07:38;;;;;;;2.88;2.67;;;;;;;;;;5074873;28;20086;-60
2021/08/01 03:10:03;;;;;;;4.35;2.72;;;;;;;;;;5074414;28;20099;-60
2021/08/01 03:12:28;;;;;;;5.00;2.60;;;;;;;;;;5069266;28;20113;-60
2021/08/01 03:14:53;;;;;;;3.33;2.65;;;;;;;;;;5054722;28;20382;-60
2021/08/01 03:17:19;;;;;;;3.30;2.72;;;;;;;;;;5063720;28;20027;-60
2021/08/01 03:19:44;;;;;;;3.10;2.80;;;;;;;;;;5074258;28;20024;-59
2021/08/01 03:22:09;;;;;;;2.92;2.60;;;;;;;;;;5074456;28;20036;-60
2021/08/01 03:24:34;;;;;;;3.75;2.65;;;;;;;;;;5074364;28;20435;-60
2021/08/01 03:27:00;;;;;;;3.22;2.78;;;;;;;;;;5074493;28;20047;-60
2021/08/01 03:29:25;;;;;;;6.07;2.90;;;;;;;;;;5074535;28;20017;-60
2021/08/01 03:31:50;;;;;;;4.38;2.55;;;;;;;;;;5074267;28;20024;-59
2021/08/01 03:34:15;;;;;;;3.13;2.83;;;;;;;;;;5073693;28;20473;-60
2021/08/01 03:36:41;;;;;;;4.97;2.47;;;;;;;;;;5074326;28;20069;-60
2021/08/01 03:39:06;;;;;;;5.32;2.53;;;;;;;;;;5074289;28;20107;-60
2021/08/01 03:41:31;;;;;;;3.55;2.97;;;;;;;;;;5073824;28;20135;-60
2021/08/01 03:43:56;;;;;;;3.00;2.67;;;;;;;;;;5073686;28;20027;-60
2021/08/01 03:46:22;;;;;;;4.90;2.88;;;;;;;;;;5074025;28;20027;-60
2021/08/01 03:48:47;;;;;;;3.78;3.03;;;;;;;;;;5067738;28;20645;-60
2021/08/01 03:51:12;;;;;;;3.72;3.00;;;;;;;;;;5073546;28;20024;-60
2021/08/01 03:53:37;;;;;;;2.83;2.40;;;;;;;;;;5073992;28;20505;-61
2021/08/01 03:56:03;;;;;;;4.78;3.08;;;;;;;;;;5073978;28;20103;-59
2021/08/01 03:58:28;;;;;;;5.15;3.30;;;;;;;;;;5074011;28;20013;-60
2021/08/01 04:00:54;;;;;;;3.45;3.10;;;;;;;;;;5073604;28;20043;-60
2021/08/01 04:03:19;;;;;;;3.72;2.75;;;;;;;;;;5073349;28;20280;-60
2021/08/01 04:05:44;;;;;;;3.40;2.97;;;;;;;;;;5073394;28;20032;-59
2021/08/01 04:08:09;;;;;;;4.03;2.97;;;;;;;;;;5073669;28;20032;-60
2021/08/01 04:10:35;;;;;;;6.95;3.15;;;;;;;;;;5073683;28;20020;-60
2021/08/01 04:13:00;;;;;;;3.53;3.05;;;;;;;;;;5073478;28;20035;-60
2021/08/01 04:15:25;;;;;;;3.50;3.20;;;;;;;;;;5073305;28;20024;-60
2021/08/01 04:17:51;;;;;;;3.90;2.40;;;;;;;;;;5051654;28;20023;-60
2021/08/01 04:20:16;;;;;;;3.10;2.75;;;;;;;;;;5054454;28;20390;-60
2021/08/01 04:22:42;;;;;;;3.63;2.65;;;;;;;;;;5073459;28;20484;-60
2021/08/01 04:25:07;;;;;;;3.78;2.95;;;;;;;;;;5073409;28;20027;-60
2021/08/01 04:27:33;;;;;;;3.45;3.03;;;;;;;;;;5073368;28;20016;-60
2021/08/01 04:29:58;;;;;;;2.85;2.55;;;;;;;;;;5073434;28;20454;-60
2021/08/01 04:32:23;;;;;;;3.38;2.78;;;;;;;;;;5072607;28;20486;-60
2021/08/01 04:34:48;;;;;;;6.43;3.08;;;;;;;;;;5072652;28;20033;-60
2021/08/01 04:37:13;;;;;;;3.55;3.25;;;;;;;;;;5072888;28;20029;-60
2021/08/01 04:39:39;;;;;;;4.70;2.83;;;;;;;;;;5072898;28;20082;-60
2021/08/01 04:42:04;;;;;;;3.58;2.63;;;;;;;;;;5066433;28;20123;-60
2021/08/01 04:44:29;;;;;;;3.28;2.42;;;;;;;;;;5053113;28;20013;-60
2021/08/01 04:46:54;;;;;;;3.60;3.00;;;;;;;;;;5084064;28;20047;-60
2021/08/01 04:49:19;;;;;;;5.18;3.08;;;;;;;;;;5093294;28;20024;-60
2021/08/01 04:51:45;;;;;;;5.82;2.45;;;;;;;;;;5069108;28;20056;-60
2021/08/01 04:54:10;;;;;;;3.90;2.72;;;;;;;;;;5052696;28;20027;-60
2021/08/01 04:56:35;;;;;;;3.80;2.47;;;;;;;;;;5052794;28;20429;-60
2021/08/01 04:59:00;;;;;;;2.67;2.40;;;;;;;;;;5052673;28;20036;-60
2021/08/01 05:01:25;;;;;;;6.47;2.50;;;;;;;;;;5061231;28;20039;-60
2021/08/01 05:03:50;;;;;;;3.05;2.50;;;;;;;;;;5054314;28;20059;-60
2021/08/01 05:06:17;;;;;;;3.05;2.45;;;;;;;;;;5072399;28;20082;-60
2021/08/01 05:08:42;;;;;;;3.53;2.33;;;;;;;;;;5072344;28;20024;-59
2021/08/01 05:11:07;;;;;;;2.38;2.17;;;;;;;;;;5072395;28;20037;-60
2021/08/01 05:13:33;;;;;;;2.70;2.22;;;;;;;;;;5072393;28;20111;-58
2021/08/01 05:15:58;;;;;;;2.78;2.38;;;;;;;;;;5072372;28;20462;-60
2021/08/01 05:18:23;;;;;;;2.85;2.30;;;;;;;;;;5071688;28;20441;-59
2021/08/01 05:20:49;;;;;;;3.17;2.30;;;;;;;;;;5072347;28;20414;-60
2021/08/01 05:23:14;;;;;;;3.53;2.40;;;;;;;;;;5054007;28;20016;-59
2021/08/01 05:25:40;;;;;;;2.67;2.17;;;;;;;;;;5072388;28;20482;-59
2021/08/01 05:28:05;;;;;;;2.85;2.13;;;;;;;;;;5072038;28;20017;-60
2021/08/01 05:30:30;;;;;;;2.70;2.38;;;;;;;;;;5072109;28;20016;-60
2021/08/01 05:32:56;;;;;;;2.22;2.00;;;;;;;;;;5072092;28;20409;-60
2021/08/01 05:35:21;;;;;;;2.50;2.22;;;;;;;;;;5072141;28;20027;-60
2021/08/01 05:37:46;;;;;;;3.38;2.65;;;;;;;;;;5072173;28;20424;-60
2021/08/01 05:40:12;;;;;;;3.38;2.08;;;;;;;;;;5071689;28;20111;-60
2021/08/01 05:42:37;;;;;;;2.20;2.03;;;;;;;;;;5071409;28;20017;-60
2021/08/01 05:45:03;;;;;;;2.25;2.05;;;;;;;;;;5071853;28;20050;-60
2021/08/01 05:47:28;;;;;;;3.38;2.20;;;;;;;;;;5071720;28;20025;-60
2021/08/01 05:49:54;;;;;;;1.98;1.85;;;;;;;;;;5071995;28;20024;-60
2021/08/01 05:52:19;;;;;;;2.08;1.88;;;;;;;;;;5071797;28;20134;-60
2021/08/01 05:54:44;;;;;;;2.28;1.77;;;;;;;;;;5053754;28;20391;-60
2021/08/01 05:57:10;;;;;;;2.40;2.20;;;;;;;;;;5071991;28;20025;-60
2021/08/01 05:59:35;;;;;;;3.28;2.08;;;;;;;;;;5072585;28;20066;-60
2021/08/01 06:02:00;;;;;;;2.20;2.00;;;;;;;;;;5071473;28;20025;-60
2021/08/01 06:04:25;;;;;;;2.30;2.10;;;;;;;;;;5071541;28;20143;-61
2021/08/01 06:06:50;;;;;;;1.95;1.65;;;;;;;;;;5071193;28;20045;-60
2021/08/01 06:09:16;;;;;;;2.30;1.92;;;;;;;;;;5071688;28;20013;-60
2021/08/01 06:11:41;;;;;;;3.58;2.33;;;;;;;;;;5071704;28;20021;-60
2021/08/01 06:14:06;;;;;;;4.25;2.40;;;;;;;;;;5071609;28;20020;-60
2021/08/01 06:16:31;;;;;;;3.63;2.00;;;;;;;;;;5070656;28;20078;-59
2021/08/01 06:18:56;;;;;;;2.40;2.00;;;;;;;;;;5060524;28;20078;-61
2021/08/01 06:21:22;;;;;;;4.25;1.92;;;;;;;;;;5051618;28;20017;-61
2021/08/01 06:23:48;;;;;;;2.38;1.88;;;;;;;;;;5051432;28;20036;-61
2021/08/01 06:26:14;;;;;;;4.13;1.88;;;;;;;;;;5069678;28;20028;-61
2021/08/01 06:28:40;;;;;;;2.65;1.83;;;;;;;;;;5071555;28;20142;-61
2021/08/01 06:31:05;;;;;;;3.28;2.00;;;;;;;;;;5074633;28;20057;-61
2021/08/01 06:33:31;;;;;;;4.07;1.83;;;;;;;;;;5075232;28;20086;-60
2021/08/01 06:35:57;;;;;;;2.47;2.28;;;;;;;;;;5075529;28;20025;-60
2021/08/01 06:38:22;;;;;;;2.90;2.38;;;;;;;;;;5074983;28;20074;-60
2021/08/01 06:40:47;;;;;;;3.08;2.10;;;;;;;;;;5074970;28;20039;-60
2021/08/01 06:43:13;;;;;;;2.42;2.17;;;;;;;;;;5075194;28;20516;-59
2021/08/01 06:45:38;;;;;;;5.13;2.67;;;;;;;;;;5075116;28;20035;-59
2021/08/01 06:48:05;;;;;;;2.63;2.42;;;;;;;;;;5074947;28;20031;-59
2021/08/01 06:50:31;;;;;;;2.03;1.77;;;;;;;;;;5075270;28;20528;-60
2021/08/01 06:52:56;;;;;;;2.53;1.90;;;;;;;;;;5075066;28;20077;-61
2021/08/01 06:55:21;;;;;;;1.77;1.67;;;;;;;;;;5074791;28;20390;-59
2021/08/01 06:57:46;;;;;;;3.90;2.47;;;;;;;;;;5075154;28;20020;-60
2021/08/01 07:00:12;;;;;;;3.63;2.17;;;;;;;;;;5074899;28;20356;-59
2021/08/01 07:02:37;;;;;;;2.38;1.92;;;;;;;;;;5074341;28;20027;-60
2021/08/01 07:05:03;;;;;;;4.15;2.20;;;;;;;;;;5074677;28;20424;-60
2021/08/01 07:07:28;;;;;;;3.95;2.45;;;;;;;;;;5074865;28;20051;-59
2021/08/01 07:09:53;;;;;;;2.47;2.28;;;;;;;;;;5056587;28;20035;-60
2021/08/01 07:12:18;;;;;;;2.45;2.15;;;;;;;;;;5074645;28;20020;-60
2021/08/01 07:14:46;;;;;;;2.10;1.90;;;;;;;;;;5074259;28;20020;-60
2021/08/01 07:17:11;;;;;;;3.13;2.15;;;;;;;;;;5056216;28;20115;-60
2021/08/01 07:19:36;;;;;;;3.85;1.90;;;;;;;;;;5074523;28;20158;-61
2021/08/01 07:22:01;;;;;;;2.28;1.88;;;;;;;;;;5074347;28;20078;-61
2021/08/01 07:24:26;;;;;;;1.92;1.80;;;;;;;;;;5074590;28;20466;-61
2021/08/01 07:26:53;;;;;;;2.78;2.05;;;;;;;;;;5074346;28;20013;-59
2021/08/01 07:29:19;;;;;;;2.92;1.63;;;;;;;;;;5074615;28;20017;-59
2021/08/01 07:31:44;;;;;;;2.65;1.67;;;;;;;;;;5074015;28;20013;-59
2021/08/01 07:34:10;;;;;;;2.92;2.13;;;;;;;;;;5074370;28;20522;-59
2021/08/01 07:36:35;;;;;;;2.72;2.10;;;;;;;;;;5056284;28;20020;-59
2021/08/01 07:39:01;;;;;;;3.85;2.30;;;;;;;;;;5073859;28;20016;-59
2021/08/01 07:41:26;;;;;;;2.50;2.30;;;;;;;;;;5073803;28;20016;-59
2021/08/01 07:43:51;;;;;;;3.57;2.27;;;;;;;;;;5073973;28;20043;-59
2021/08/01 07:46:17;;;;;;;2.60;2.40;;;;;;;;;;5073713;28;20707;-59
2021/08/01 07:48:43;;;;;;;4.80;2.78;;;;;;;;;;5074316;28;20047;-60
2021/08/01 07:51:08;;;;;;;2.47;2.28;;;;;;;;;;5073731;28;20024;-60
2021/08/01 07:53:33;;;;;;;3.20;2.15;;;;;;;;;;5073776;28;20078;-60
2021/08/01 07:55:58;;;;;;;2.47;2.27;;;;;;;;;;5055684;28;20028;-60
2021/08/01 07:58:24;;;;;;;2.60;2.40;;;;;;;;;;5073673;28;20266;-59
2021/08/01 08:00:49;;;;;;;4.68;2.95;;;;;;;;;;5074068;28;20017;-60
2021/08/01 08:03:14;;;;;;;2.90;2.05;;;;;;;;;;5073347;28;20021;-60
2021/08/01 08:05:39;;;;;;;5.43;2.42;;;;;;;;;;5072483;28;20169;-60
2021/08/01 08:08:05;;;;;;;3.20;2.40;;;;;;;;;;5073693;28;20046;-61
2021/08/01 08:10:30;;;;;;;2.60;2.40;;;;;;;;;;5073669;28;20265;-60
2021/08/01 08:12:55;;;;;;;3.03;2.28;;;;;;;;;;5064700;28;20025;-59
2021/08/01 08:15:20;;;;;;;2.92;2.38;;;;;;;;;;5068898;28;20096;-59
2021/08/01 08:17:46;;;;;;;2.97;2.45;;;;;;;;;;5073430;28;20104;-60
2021/08/01 08:20:11;;;;;;;2.08;1.90;;;;;;;;;;5072922;28;20017;-59
2021/08/01 08:22:36;;;;;;;2.67;1.80;;;;;;;;;;5055286;28;20050;-59
2021/08/01 08:25:03;;;;;;;2.25;1.77;;;;;;;;;;5073173;28;20021;-59
2021/08/01 08:27:28;;;;;;;2.42;1.67;;;;;;;;;;5073453;28;20027;-59
2021/08/01 08:29:54;;;;;;;4.18;1.80;;;;;;;;;;5055348;28;20110;-60
2021/08/01 08:32:19;;;;;;;3.00;2.70;;;;;;;;;;5073187;28;20327;-60
2021/08/01 08:34:44;;;;;;;2.97;2.30;;;;;;;;;;5072687;28;20029;-60
2021/08/01 08:37:09;;;;;;;2.40;1.95;;;;;;;;;;5072990;28;20039;-60
2021/08/01 08:39:35;;;;;;;3.63;2.10;;;;;;;;;;5072568;28;20099;-59
2021/08/01 08:42:00;;;;;;;2.70;2.00;;;;;;;;;;5072877;28;20132;-61
2021/08/01 08:44:26;;;;;;;2.22;2.03;;;;;;;;;;5073150;28;20070;-60
2021/08/01 08:46:53;;;;;;;2.83;2.13;;;;;;;;;;5072838;28;20074;-59
2021/08/01 08:49:19;;;;;;;3.20;2.05;;;;;;;;;;5072470;28;20020;-60
2021/08/01 08:51:45;;;;;;;4.20;2.13;;;;;;;;;;5072741;28;20028;-60
2021/08/01 08:54:13;;;;;;;4.63;2.50;;;;;;;;;;5071811;28;20048;-60
2021/08/01 08:56:39;;;;;;;2.65;2.45;;;;;;;;;;5072881;28;20017;-60
2021/08/01 08:59:06;;;;;;;2.80;2.53;;;;;;;;;;5072308;28;20035;-60
2021/08/01 09:01:31;;;;;;;2.60;2.28;;;;;;;;;;5071994;28;20028;-60
2021/08/01 09:03:56;;;;;;;3.45;2.70;;;;;;;;;;5054388;28;20046;-60
2021/08/01 09:06:22;;;;;;;3.45;3.05;;;;;;;;;;5072424;28;20036;-60
2021/08/01 09:08:47;;;;;;;3.38;3.08;;;;;;;;;;5072451;28;20012;-60
2021/08/01 09:11:12;;;;;;;3.38;3.05;;;;;;;;;;5072378;28;20017;-60
2021/08/01 09:13:41;;;;;;;3.83;3.25;;;;;;;;;;5054257;28;20024;-60
2021/08/01 09:16:06;;;;;;;3.50;3.20;;;;;;;;;;5072509;28;20020;-60
2021/08/01 09:18:32;;;;;;;3.95;3.50;;;;;;;;;;5071630;28;20035;-60
2021/08/01 09:20:57;;;;;;;3.75;3.38;;;;;;;;;;5072130;28;20021;-60
2021/08/01 09:23:22;;;;;;;4.25;3.55;;;;;;;;;;5071062;28;20034;-59
2021/08/01 09:25:56;;;;;;;4.28;3.83;;;;;;;;;;5072363;28;20021;-60
2021/08/01 09:28:24;;;;;;;4.38;3.95;;;;;;;;;;5072350;28;20021;-60
2021/08/01 09:30:56;;;;;;;4.75;4.20;;;;;;;;;;5072221;28;20016;-60
2021/08/01 09:33:35;;;;;;;4.63;3.88;;;;;;;;;;5071832;28;20023;-60
2021/08/01 09:36:13;;;;;;;4.82;4.28;;;;;;;;;;5071897;28;20035;-60
2021/08/01 09:38:45;;;;;;;4.97;4.55;;;;;;;;;;5071933;28;20017;-60
2021/08/01 09:41:11;;;;;;;5.13;4.50;;;;;;;;;;5063696;28;20025;-60
2021/08/01 09:43:45;;;;;;;4.82;4.20;;;;;;;;;;5063011;28;20024;-60
2021/08/01 09:46:11;;;;;;;5.15;4.38;;;;;;;;;;5071713;28;20074;-60
2021/08/01 09:48:36;;;;;;;5.68;4.70;;;;;;;;;;5071978;28;20021;-60
2021/08/01 09:51:01;;;;;;;6.07;4.53;;;;;;;;;;5071928;28;20375;-59
2021/08/01 09:53:27;;;;;;;4.85;4.40;;;;;;;;;;5071499;28;20021;-60
2021/08/01 09:56:11;;;;;;;5.13;4.07;;;;;;;;;;5072207;28;20155;-59
2021/08/01 09:58:36;;;;;;;4.40;4.00;;;;;;;;;;5071935;28;20108;-59
2021/08/01 10:01:02;;;;;;;4.60;4.20;;;;;;;;;;5071645;28;20496;-59
2021/08/01 10:03:35;;;;;;;4.55;4.15;;;;;;;;;;5071667;28;20027;-59
2021/08/01 10:06:11;;;;;;;4.78;4.38;;;;;;;;;;5077850;28;20056;-59
2021/08/01 10:08:37;;;;;;;4.43;4.03;;;;;;;;;;5078409;28;20013;-59
2021/08/01 10:11:07;;;;;;;4.70;4.30;;;;;;;;;;5071276;28;20017;-61
2021/08/01 10:13:32;;;;;;;4.72;4.32;;;;;;;;;;5078253;28;20029;-58
2021/08/01 10:15:57;;;;;;;4.70;4.25;;;;;;;;;;5077897;28;20389;-60
2021/08/01 10:18:23;;;;;;;4.38;4.07;;;;;;;;;;5078095;28;20070;-59
2021/08/01 10:20:48;;;;;;;3.90;3.20;;;;;;;;;;5060335;28;20107;-59
2021/08/01 10:23:13;;;;;;;3.85;3.55;;;;;;;;;;5078410;28;20028;-59
2021/08/01 10:25:40;;;;;;;4.45;3.35;;;;;;;;;;5077884;28;20013;-59
2021/08/01 10:28:06;;;;;;;3.83;3.08;;;;;;;;;;5078291;28;20020;-59
2021/08/01 10:30:31;;;;;;;4.20;3.45;;;;;;;;;;5078029;28;20008;-59
2021/08/01 10:33:03;;;;;;;4.07;3.45;;;;;;;;;;5078109;28;20027;-60
2021/08/01 10:35:29;;;;;;;3.58;2.90;;;;;;;;;;5078171;28;20056;-59
2021/08/01 10:37:58;;;;;;;3.88;3.58;;;;;;;;;;5077976;28;20518;-60
2021/08/01 10:40:25;;;;;;;3.60;3.25;;;;;;;;;;5078071;28;20513;-59
2021/08/01 10:42:53;;;;;;;3.50;3.20;;;;;;;;;;5077963;28;20032;-59
2021/08/01 10:45:20;;;;;;;5.35;3.47;;;;;;;;;;5077712;28;20073;-60
2021/08/01 10:47:45;;;;;;;2.95;2.67;;;;;;;;;;5078462;28;20013;-59
2021/08/01 10:50:14;;;;;;;3.63;2.50;;;;;;;;;;5078153;28;20668;-60
2021/08/01 10:52:40;;;;;;;3.35;3.05;;;;;;;;;;5078161;28;20111;-60
2021/08/01 10:55:06;;;;;;;4.88;2.50;;;;;;;;;;5077720;28;20021;-60
2021/08/01 10:57:32;;;;;;;3.22;2.70;;;;;;;;;;5077921;28;20115;-59
2021/08/01 11:00:04;;;;;;;3.40;2.88;;;;;;;;;;5077757;28;20043;-60
2021/08/01 11:02:30;;;;;;;4.28;3.05;;;;;;;;;;5078106;28;20462;-59
2021/08/01 11:04:56;;;;;;;3.20;2.90;;;;;;;;;;5077513;28;20024;-60
2021/08/01 11:07:27;;;;;;;4.05;2.40;;;;;;;;;;5077796;28;20401;-59
2021/08/01 11:10:04;;;;;;;3.10;2.90;;;;;;;;;;5077763;28;20016;-60
2021/08/01 11:12:30;;;;;;;2.78;2.15;;;;;;;;;;5074835;28;20726;-60
2021/08/01 11:14:55;;;;;;;4.88;2.28;;;;;;;;;;5077829;28;20030;-59
2021/08/01 11:17:40;;;;;;;3.05;2.72;;;;;;;;;;5073737;28;20475;-60
2021/08/01 11:20:05;;;;;;;;;;;;;;;;;;5055171;28;20083;-60
2021/08/01 11:22:37;;;;;;;2.63;2.25;;;;;;;;;;5055344;28;19921;-59
2021/08/01 11:25:18;;;;;;;3.50;3.15;;;;;;;;;;5054379;28;20104;-60
2021/08/01 11:28:02;;;;;;;4.85;3.80;;;;;;;;;;5040383;28;20021;-60
2021/08/01 11:30:27;;;;;;;4.63;3.42;;;;;;;;;;5056247;28;20024;-60
2021/08/01 11:32:52;;;;;;;4.70;3.72;;;;;;;;;;5074374;28;20382;-60
2021/08/01 11:35:18;;;;;;;3.70;3.40;;;;;;;;;;5074257;28;20043;-60
2021/08/01 11:37:43;;;;;;;3.42;3.10;;;;;;;;;;5073806;28;20025;-61
2021/08/01 11:40:09;;;;;;;3.78;3.22;;;;;;;;;;5073977;28;20021;-61
2021/08/01 11:42:34;;;;;;;5.43;3.40;;;;;;;;;;5066516;28;20448;-61
2021/08/01 11:45:00;;;;;;;3.85;3.33;;;;;;;;;;5065378;28;20663;-61
2021/08/01 11:47:27;;;;;;;4.13;3.15;;;;;;;;;;5074272;28;20047;-61
2021/08/01 11:49:52;;;;;;;4.60;3.35;;;;;;;;;;5073714;28;20051;-61
2021/08/01 11:52:20;;;;;;;4.00;3.33;;;;;;;;;;5074230;28;20059;-61
2021/08/01 11:54:46;;;;;;;6.93;3.45;;;;;;;;;;5073632;28;20108;-60
2021/08/01 11:57:12;;;;;;;3.40;3.10;;;;;;;;;;5073631;28;20051;-60
2021/08/01 11:59:38;;;;;;;4.13;3.83;;;;;;;;;;5073858;28;20055;-60
2021/08/01 12:02:14;;;;;;;3.00;2.80;;;;;;;;;;5073937;28;20519;-61
2021/08/01 12:04:51;;;;;;;4.70;3.53;;;;;;;;;;5073714;28;20099;-61
2021/08/01 12:07:16;;;;;;;4.28;3.10;;;;;;;;;;5073797;28;20059;-61
2021/08/01 12:09:41;;;;;;;3.45;3.00;;;;;;;;;;5073327;28;20012;-60
2021/08/01 12:12:07;;;;;;;3.37;3.07;;;;;;;;;;5070556;28;20025;-61
2021/08/01 12:14:34;;;;;;;3.55;2.60;;;;;;;;;;5053574;28;20355;-61
2021/08/01 12:16:59;;;;;;;2.88;2.63;;;;;;;;;;5060098;28;20028;-61
2021/08/01 12:19:29;;;;;;;2.80;2.50;;;;;;;;;;5073403;28;20402;-60
2021/08/01 12:21:59;;;;;;;4.35;2.00;;;;;;;;;;5073284;28;20241;-61
2021/08/01 12:24:28;;;;;;;2.10;1.90;;;;;;;;;;5072550;28;20021;-61
2021/08/01 12:26:57;;;;;;;3.85;2.20;;;;;;;;;;5072838;28;20024;-61
2021/08/01 12:29:28;;;;;;;3.28;2.00;;;;;;;;;;5072601;28;20082;-61
2021/08/01 12:31:54;;;;;;;3.15;1.80;;;;;;;;;;5073221;28;20016;-61
2021/08/01 12:34:22;;;;;;;2.45;2.20;;;;;;;;;;5072890;28;20013;-60
2021/08/01 12:36:47;;;;;;;3.75;2.55;;;;;;;;;;5073082;28;20020;-61
2021/08/01 12:39:16;;;;;;;1.92;1.80;;;;;;;;;;5073062;28;20516;-61
2021/08/01 12:41:41;;;;;;;5.25;1.90;;;;;;;;;;5072951;28;20016;-59
2021/08/01 12:44:13;;;;;;;3.15;1.90;;;;;;;;;;5073274;28;20016;-61
2021/08/01 12:46:38;;;;;;;2.97;2.15;;;;;;;;;;5072737;28;20069;-61
2021/08/01 12:49:03;;;;;;;3.07;1.90;;;;;;;;;;5072370;28;20021;-61
2021/08/01 12:51:28;;;;;;;2.58;1.90;;;;;;;;;;5072890;28;20315;-61
2021/08/01 12:53:58;;;;;;;2.45;2.20;;;;;;;;;;5072564;28;20039;-61
2021/08/01 12:56:23;;;;;;;2.22;1.58;;;;;;;;;;5073028;28;20082;-61
2021/08/01 12:58:48;;;;;;;2.05;1.88;;;;;;;;;;5072602;28;20055;-61
2021/08/01 13:01:13;;;;;;;2.40;1.80;;;;;;;;;;5072829;28;20028;-58
2021/08/01 13:03:43;;;;;;;2.23;1.80;;;;;;;;;;5072285;28;20676;-61
2021/08/01 13:06:12;;;;;;;1.80;1.40;;;;;;;;;;5072520;28;20621;-61
2021/08/01 13:08:44;;;;;;;2.22;1.40;;;;;;;;;;5072506;28;20023;-60
2021/08/01 13:11:10;;;;;;;1.42;1.30;;;;;;;;;;5072256;28;20095;-60
2021/08/01 13:13:48;;;;;;;3.25;1.50;;;;;;;;;;5067395;28;20031;-60
2021/08/01 13:16:13;;;;;;;1.70;1.60;;;;;;;;;;5072323;28;20363;-61
2021/08/01 13:18:39;;;;;;;1.37;1.00;;;;;;;;;;5054865;28;20111;-60
2021/08/01 13:21:17;;;;;;;1.73;1.20;;;;;;;;;;5072630;28;20024;-60
2021/08/01 13:23:44;;;;;;;2.45;1.00;;;;;;;;;;5071959;28;20028;-60
2021/08/01 13:26:15;;;;;;;1.10;0.77;;;;;;;;;;5072755;28;20021;-60
2021/08/01 13:29:06;;;;;;;2.35;0.77;;;;;;;;;;5072356;28;20028;-60
2021/08/01 13:31:32;;;;;;;1.15;0.57;;;;;;;;;;5048590;28;20053;-59
2021/08/01 13:34:01;;;;;;;1.10;0.70;;;;;;;;;;5071567;28;20471;-61
2021/08/01 13:36:45;;;;;;;1.58;0.90;;;;;;;;;;5071870;28;20055;-60
2021/08/01 13:39:12;;;;;;;1.63;0.75;;;;;;;;;;5071503;28;20029;-60
2021/08/01 13:41:38;;;;;;;0.68;0.68;;;;;;;;;;5054050;28;20055;-60
2021/08/01 13:44:13;;;;;;;1.58;0.70;;;;;;;;;;5071704;28;20048;-60
2021/08/01 13:46:39;;;;;;;1.38;0.70;;;;;;;;;;5051855;28;20047;-60
2021/08/01 13:49:04;;;;;;;1.38;0.50;;;;;;;;;;5051968;28;20053;-60
2021/08/01 13:51:30;;;;;;;1.17;0.60;;;;;;;;;;5051997;28;20036;-60
2021/08/01 13:53:55;;;;;;;1.45;0.75;;;;;;;;;;5051874;28;20258;-60
2021/08/01 13:56:20;;;;;;;1.03;0.80;;;;;;;;;;5054717;28;20099;-60
2021/08/01 13:58:46;;;;;;;2.03;0.70;;;;;;;;;;5071647;28;20021;-60
2021/08/01 14:01:11;;;;;;;1.23;0.60;;;;;;;;;;5071681;28;20038;-60
2021/08/01 14:03:38;;;;;;;2.57;0.83;;;;;;;;;;5071673;28;20283;-60
2021/08/01 14:06:03;;;;;;;2.15;0.57;;;;;;;;;;5071742;28;20338;-60
2021/08/01 14:08:29;;;;;;;0.73;0.40;;;;;;;;;;5071523;28;20469;-59
2021/08/01 14:10:55;;;;;;;1.38;0.82;;;;;;;;;;5071451;28;20501;-60
2021/08/01 14:13:21;;;;;;;1.48;0.57;;;;;;;;;;5058853;28;20033;-59
2021/08/01 14:15:46;;;;;;;0.90;0.70;;;;;;;;;;5051716;28;20035;-59
2021/08/01 14:18:11;;;;;;;0.70;0.50;;;;;;;;;;5053519;28;20071;-59
2021/08/01 14:20:37;;;;;;;0.70;0.40;;;;;;;;;;5071390;28;20378;-60
2021/08/01 14:23:02;;;;;;;1.07;0.40;;;;;;;;;;5071202;28;20081;-60
2021/08/01 14:25:28;;;;;;;1.90;0.80;;;;;;;;;;5053643;28;20266;-60
2021/08/01 14:27:55;;;;;;;0.52;0.35;;;;;;;;;;5071459;28;20025;-60
2021/08/01 14:30:20;;;;;;;1.85;0.70;;;;;;;;;;5071562;28;20047;-60
2021/08/01 14:32:47;;;;;;;0.60;0.60;;;;;;;;;;5071850;28;20382;-60
2021/08/01 14:35:12;;;;;;;0.75;0.47;;;;;;;;;;5057182;28;20023;-61
2021/08/01 14:37:37;;;;;;;0.70;0.60;;;;;;;;;;5071385;28;20096;-61
2021/08/01 14:40:02;;;;;;;1.00;0.50;;;;;;;;;;5071338;28;20263;-61